Time;durP1;ratioP1;P1;durP2;ratioP2;P2;SDS_P1;SDS_P2;PMS_P1;PMS_P2;Temp;Humidity;BMP_temperature;BMP_pressure;BME280_temperature;BME280_humidity;BME280_pressure;Samples;Min_cycle;Max_cycle;Signal;HPM_P1;HPM_P2
2023/03/04 00:00:07;;;;;;;8.63;0.70;;;;;;;5.81;70.69;102844.16;4977791;28;97005;-31
2023/03/04 00:02:33;;;;;;;0.95;0.60;;;;;;;5.85;70.51;102851.28;4975988;28;102373;-30
2023/03/04 00:04:58;;;;;;;0.32;0.32;;;;;;;5.84;70.54;102849.53;4977886;28;97397;-30
2023/03/04 00:07:23;;;;;;;0.30;0.08;;;;;;;5.83;70.48;102858.47;4978110;28;96620;-30
2023/03/04 00:09:49;;;;;;;3.33;0.47;;;;;;;5.84;70.75;102851.31;4977381;28;96849;-30
2023/03/04 00:12:14;;;;;;;3.63;0.57;;;;;;;5.85;70.55;102850.41;4976826;28;98396;-30
2023/03/04 00:14:40;;;;;;;1.20;0.73;;;;;;;5.79;70.94;102850.47;4977380;28;97948;-30
2023/03/04 00:17:06;;;;;;;1.50;0.35;;;;;;;5.82;70.59;102851.34;4977394;28;96671;-30
2023/03/04 00:19:31;;;;;;;3.28;0.80;;;;;;;5.84;70.55;102859.38;4976130;28;96891;-30
2023/03/04 00:21:57;;;;;;;2.95;0.45;;;;;;;5.81;70.72;102862.97;4977150;28;97962;-31
2023/03/04 00:24:23;;;;;;;1.45;0.77;;;;;;;5.82;71.11;102855.84;4976355;28;100080;-31
2023/03/04 00:26:49;;;;;;;3.63;0.77;;;;;;;5.78;71.02;102854.94;4975285;28;96678;-30
2023/03/04 00:29:14;;;;;;;0.90;0.60;;;;;;;5.81;70.75;102860.28;4977617;28;96914;-31
2023/03/04 00:31:40;;;;;;;1.45;0.88;;;;;;;5.78;71.13;102848.69;4976924;28;99104;-31
2023/03/04 00:34:06;;;;;;;1.92;1.02;;;;;;;5.80;71.04;102858.53;4976807;28;99541;-31
2023/03/04 00:36:32;;;;;;;13.65;1.50;;;;;;;5.80;71.64;102852.25;4976452;28;96486;-31
2023/03/04 00:38:57;;;;;;;8.30;1.00;;;;;;;5.75;71.07;102842.44;4977116;28;96730;-30
2023/03/04 00:41:22;;;;;;;1.52;0.98;;;;;;;5.80;71.74;102854.94;4976775;28;97831;-30
2023/03/04 00:43:48;;;;;;;2.13;1.17;;;;;;;5.77;71.16;102844.19;4976489;28;99020;-30
2023/03/04 00:46:13;;;;;;;0.35;0.35;;;;;;;5.78;71.83;102849.56;4977136;28;96484;-30
2023/03/04 00:48:39;;;;;;;1.02;0.70;;;;;;;5.78;71.78;102844.19;4977073;28;96914;-30
2023/03/04 00:51:04;;;;;;;3.25;1.00;;;;;;;5.80;71.70;102845.06;4976709;28;98319;-31
2023/03/04 00:53:29;;;;;;;2.10;1.33;;;;;;;5.74;71.48;102842.44;4976793;28;97752;-30
2023/03/04 00:55:55;;;;;;;2.33;1.20;;;;;;;5.73;71.62;102843.34;4977041;28;96398;-30
2023/03/04 00:58:20;;;;;;;2.17;0.90;;;;;;;5.70;71.79;102841.59;4977050;28;96730;-32
2023/03/04 01:00:45;;;;;;;6.82;0.98;;;;;;;5.71;71.76;102834.41;4976165;28;97939;-30
2023/03/04 01:03:11;;;;;;;0.50;0.50;;;;;;;5.78;71.60;102846.88;4976156;28;106894;-30
2023/03/04 01:05:36;;;;;;;1.05;0.77;;;;;;;5.72;71.65;102839.78;4975471;28;96473;-30
2023/03/04 01:08:03;;;;;;;4.47;0.75;;;;;;;5.73;71.88;102844.22;4976651;28;96765;-32
2023/03/04 01:10:28;;;;;;;3.08;1.10;;;;;;;5.71;71.75;102848.72;4974753;28;101397;-30
2023/03/04 01:12:53;;;;;;;5.35;0.98;;;;;;;5.71;72.19;102851.41;4976277;28;97309;-30
2023/03/04 01:15:19;;;;;;;6.47;1.08;;;;;;;5.74;71.57;102851.41;4976621;28;96602;-31
2023/03/04 01:17:44;;;;;;;1.05;0.88;;;;;;;5.74;71.38;102847.81;4976760;28;97461;-30
2023/03/04 01:20:11;;;;;;;0.70;0.45;;;;;;;5.73;71.47;102848.72;4976028;28;99781;-30
2023/03/04 01:22:36;;;;;;;0.75;0.60;;;;;;;5.74;71.88;102846.03;4976137;28;100555;-30
2023/03/04 01:25:02;;;;;;;1.40;0.93;;;;;;;5.73;71.42;102846.03;4975407;28;96833;-30
2023/03/04 01:27:28;;;;;;;0.50;0.38;;;;;;;5.72;71.62;102850.53;4974458;28;97047;-30
2023/03/04 01:29:53;;;;;;;3.67;0.65;;;;;;;5.71;71.83;102843.34;4975848;28;100095;-31
2023/03/04 01:32:18;;;;;;;0.50;0.45;;;;;;;5.71;71.78;102834.41;4975596;28;104753;-30
2023/03/04 16:08:30;;;;;;;3.30;0.38;;;;;;;7.51;71.37;102562.44;4974189;28;98357;-30
2023/03/04 16:10:55;;;;;;;1.95;0.77;;;;;;;7.50;71.93;102558.88;4977820;28;97870;-30
2023/03/04 16:13:22;;;;;;;0.63;0.40;;;;;;;7.50;72.18;102558.88;4977614;28;96975;-30
2023/03/04 16:15:48;;;;;;;6.35;0.68;;;;;;;7.47;72.80;102558.94;4976326;28;96755;-32
2023/03/04 16:18:15;;;;;;;1.88;0.50;;;;;;;7.53;72.49;102556.13;4976366;28;99599;-30
2023/03/04 16:20:43;;;;;;;0.70;0.50;;;;;;;7.48;72.46;102555.31;4975626;28;100961;-30
2023/03/04 16:23:12;;;;;;;1.77;0.13;;;;;;;7.47;72.42;102555.38;4976096;28;96645;-30
2023/03/04 16:25:38;;;;;;;0.13;0.10;;;;;;;7.41;72.75;102557.28;4975750;28;96736;-30
2023/03/04 16:28:03;;;;;;;2.38;0.32;;;;;;;7.41;72.51;102548.28;4977183;28;98009;-30
2023/03/04 16:30:30;;;;;;;0.43;0.30;;;;;;;7.39;72.73;102548.34;4976792;28;99153;-30
2023/03/04 16:32:56;;;;;;;0.52;0.13;;;;;;;7.35;72.75;102546.59;4976020;28;96763;-31
2023/03/04 16:35:24;;;;;;;1.10;0.50;;;;;;;7.34;72.61;102552.03;4976976;28;96627;-31
2023/03/04 16:37:51;;;;;;;1.98;0.60;;;;;;;7.35;72.35;102546.59;4975615;28;101018;-30
2023/03/04 16:40:19;;;;;;;3.25;0.30;;;;;;;7.32;72.44;102549.38;4975515;28;100960;-30
2023/03/04 16:42:45;;;;;;;1.45;0.17;;;;;;;7.22;72.45;102543.28;4975340;28;96549;-31
2023/03/04 16:45:19;;;;;;;0.50;0.38;;;;;;;7.17;72.46;102547.84;4977229;28;96864;-30
2023/03/04 16:47:45;;;;;;;2.60;0.63;;;;;;;7.19;72.62;102558.63;4975214;28;100604;-29
2023/03/04 16:50:19;;;;;;;1.75;0.15;;;;;;;7.11;72.04;102557.91;4976482;28;99168;-30
2023/03/04 16:52:47;;;;;;;1.00;0.28;;;;;;;7.06;72.33;102555.28;4977373;28;96623;-30
2023/03/04 16:55:21;;;;;;;0.15;0.15;;;;;;;7.00;72.26;102545.50;4975489;28;96819;-30
2023/03/04 16:57:47;;;;;;;0.03;0.03;;;;;;;6.99;72.47;102556.31;4976621;28;97396;-30
2023/03/04 17:00:16;;;;;;;1.17;0.20;;;;;;;7.04;72.52;102556.25;4976739;28;97477;-31
2023/03/04 17:02:41;;;;;;;6.82;0.65;;;;;;;6.98;72.65;102557.22;4976724;28;96734;-30
2023/03/04 17:05:14;;;;;;;0.43;0.25;;;;;;;6.96;73.00;102559.97;4976624;28;96777;-31
2023/03/04 17:07:39;;;;;;;0.20;0.10;;;;;;;6.92;73.32;102547.47;4976254;28;98043;-30
2023/03/04 17:10:05;;;;;;;1.55;0.10;;;;;;;6.91;73.46;102550.16;4976466;28;97798;-31
2023/03/04 17:12:30;;;;;;;1.23;0.20;;;;;;;6.89;73.28;102557.38;4976657;28;96614;-31
2023/03/04 17:14:55;;;;;;;1.77;0.30;;;;;;;6.87;73.39;102551.16;4976477;28;96487;-30
2023/03/04 17:17:21;;;;;;;0.17;0.10;;;;;;;6.85;73.18;102553.00;4976487;28;97432;-29
2023/03/04 17:19:46;;;;;;;1.23;0.40;;;;;;;6.87;73.20;102561.94;4976295;28;97673;-29
2023/03/04 17:22:11;;;;;;;0.30;0.25;;;;;;;6.84;73.53;102556.59;4976630;28;96697;-30
2023/03/04 17:24:37;;;;;;;0.38;0.20;;;;;;;6.86;73.44;102569.13;4976504;28;96811;-31
2023/03/04 17:27:02;;;;;;;1.10;0.32;;;;;;;6.83;73.50;102566.47;4975082;28;97788;-29
2023/03/04 17:29:28;;;;;;;1.55;0.60;;;;;;;6.84;73.59;102573.66;4975978;28;97380;-31
2023/03/04 17:31:53;;;;;;;0.85;0.30;;;;;;;6.80;73.76;102575.50;4975909;28;96580;-30
2023/03/04 17:34:18;;;;;;;1.25;0.25;;;;;;;6.81;73.94;102574.56;4976476;28;96760;-30
2023/03/04 17:36:44;;;;;;;0.85;0.32;;;;;;;6.81;73.56;102574.56;4974591;28;99237;-30
2023/03/04 17:39:10;;;;;;;0.50;0.30;;;;;;;6.83;73.68;102576.38;4975821;28;99260;-30
2023/03/04 17:41:35;;;;;;;0.30;0.20;;;;;;;6.81;73.71;102576.41;4976399;28;97002;-30
2023/03/04 17:44:00;;;;;;;1.08;0.30;;;;;;;6.75;73.62;102580.09;4975749;28;96815;-29
2023/03/04 17:46:28;;;;;;;0.98;0.45;;;;;;;6.74;73.59;102577.41;4973687;28;99221;-30
2023/03/04 17:48:56;;;;;;;0.43;0.38;;;;;;;6.75;73.61;102587.28;4974801;28;100530;-30
2023/03/04 17:51:35;;;;;;;0.57;0.38;;;;;;;6.70;73.57;102583.81;4974664;28;96901;-30
2023/03/04 17:54:04;;;;;;;3.83;0.43;;;;;;;6.67;73.99;102594.59;4974595;28;97023;-30
2023/03/04 17:56:30;;;;;;;0.50;0.15;;;;;;;6.66;73.96;102582.06;4973618;28;101283;-30
2023/03/04 17:58:57;;;;;;;0.20;0.20;;;;;;;6.64;74.24;102581.19;4974202;28;100969;-30
2023/03/04 18:01:24;;;;;;;0.88;0.60;;;;;;;6.68;73.88;102591.88;4974474;28;96716;-31
2023/03/04 18:03:51;;;;;;;0.20;0.20;;;;;;;6.62;73.97;102591.97;4975827;28;96771;-29
2023/03/04 18:06:17;;;;;;;0.50;0.50;;;;;;;6.61;74.15;102592.03;4974115;28;100929;-30
2023/03/04 18:08:43;;;;;;;1.80;0.50;;;;;;;6.63;74.13;102593.78;4975158;28;97820;-30
2023/03/04 18:11:09;;;;;;;1.02;0.43;;;;;;;6.58;74.39;102601.06;4957860;28;97187;-30
2023/03/04 18:13:39;;;;;;;1.25;0.52;;;;;;;6.55;74.95;102602.00;4974729;28;96825;-32
2023/03/04 18:16:05;;;;;;;0.50;0.50;;;;;;;6.53;74.86;102601.13;4974024;28;101321;-30
2023/03/04 18:18:30;;;;;;;0.20;0.20;;;;;;;6.54;74.68;102594.81;4975009;28;99775;-31
2023/03/04 18:20:58;;;;;;;0.98;0.65;;;;;;;6.54;74.58;102600.19;4975072;28;96718;-31
2023/03/04 18:23:23;;;;;;;3.35;1.10;;;;;;;6.53;75.15;102598.44;4974174;28;96791;-30
2023/03/04 18:25:49;;;;;;;7.65;1.23;;;;;;;6.54;75.07;102604.69;4974905;28;97846;-30
2023/03/04 18:28:15;;;;;;;3.00;0.95;;;;;;;6.49;75.66;102602.06;4973672;28;99589;-30
2023/03/04 18:30:40;;;;;;;6.88;1.52;;;;;;;6.47;75.53;102592.25;4975596;28;96697;-30
2023/03/04 18:33:05;;;;;;;1.85;0.98;;;;;;;6.50;75.34;102603.84;4975617;28;96780;-32
2023/03/04 18:35:31;;;;;;;2.13;0.75;;;;;;;6.51;75.68;102610.13;4974998;28;99200;-30
2023/03/04 18:37:56;;;;;;;1.38;0.70;;;;;;;6.48;76.37;102608.34;4975650;28;97747;-31
2023/03/04 18:40:21;;;;;;;0.95;0.70;;;;;;;6.41;77.30;102598.59;4975258;28;96725;-30
2023/03/04 18:42:47;;;;;;;0.95;0.32;;;;;;;6.38;77.30;102594.16;4973940;28;96539;-30
2023/03/04 18:45:14;;;;;;;2.10;0.50;;;;;;;6.34;77.64;102587.06;4974742;28;97768;-31
2023/03/04 18:47:42;;;;;;;0.75;0.52;;;;;;;6.34;77.48;102595.16;4973501;28;101402;-31
2023/03/04 18:50:09;;;;;;;0.10;0.10;;;;;;;6.35;77.33;102590.66;4974060;28;96674;-30
2023/03/04 18:52:34;;;;;;;2.05;0.32;;;;;;;6.36;76.70;102577.19;4975160;28;96840;-30
2023/03/04 18:55:00;;;;;;;4.75;0.90;;;;;;;6.36;76.96;102584.34;4973488;28;101104;-29
2023/03/04 18:57:25;;;;;;;1.15;0.40;;;;;;;6.33;77.89;102576.31;4974808;28;97889;-30
2023/03/04 19:00:01;;;;;;;3.65;0.57;;;;;;;6.33;77.33;102570.94;4975369;28;96569;-30
2023/03/04 19:02:47;;;;;;;0.38;0.32;;;;;;;6.34;77.42;102570.00;4975748;28;96985;-29
2023/03/04 19:05:17;;;;;;;0.50;0.20;;;;;;;6.31;77.22;102565.56;4974347;28;99380;-30
2023/03/04 19:07:43;;;;;;;0.75;0.50;;;;;;;6.31;77.03;102568.25;4973028;28;101773;-31
2023/03/04 19:10:11;;;;;;;1.25;0.70;;;;;;;6.33;77.36;102566.44;4972903;28;96638;-31
2023/03/04 19:12:36;;;;;;;0.00;0.00;;;;;;;6.33;77.30;102561.06;4973679;28;96792;-30
2023/03/04 19:15:04;;;;;;;1.90;0.50;;;;;;;6.31;77.37;102557.50;4973137;28;98866;-30
2023/03/04 19:17:31;;;;;;;0.98;0.55;;;;;;;6.33;77.43;102561.06;4973225;28;100791;-31
2023/03/04 19:19:57;;;;;;;4.28;0.95;;;;;;;6.32;77.05;102561.97;4973498;28;96704;-31
2023/03/04 19:22:23;;;;;;;1.00;0.60;;;;;;;6.31;77.54;102559.31;4973706;28;96700;-30
2023/03/04 19:24:48;;;;;;;1.02;0.55;;;;;;;6.29;77.32;102556.66;4973492;28;97234;-32
2023/03/04 19:27:13;;;;;;;1.05;0.55;;;;;;;6.31;77.37;102557.50;4974877;28;97792;-30
2023/03/04 19:29:39;;;;;;;1.75;0.32;;;;;;;6.27;77.03;102546.81;4975177;28;96549;-31
2023/03/04 19:32:04;;;;;;;1.25;0.50;;;;;;;6.26;77.56;102561.19;4974884;28;96763;-30
2023/03/04 19:34:30;;;;;;;3.15;0.47;;;;;;;6.24;77.10;102554.94;4973811;28;99207;-30
2023/03/04 19:36:55;;;;;;;1.08;0.45;;;;;;;6.21;77.60;102561.25;4974500;28;97242;-30
2023/03/04 19:39:20;;;;;;;0.35;0.30;;;;;;;6.20;76.91;102561.25;4974593;28;96611;-30
2023/03/04 19:41:46;;;;;;;0.73;0.40;;;;;;;6.19;77.10;102565.75;4974896;28;96744;-29
2023/03/04 19:44:11;;;;;;;1.10;0.60;;;;;;;6.18;76.90;102571.19;4974305;28;99498;-30
2023/03/04 19:46:37;;;;;;;2.58;0.93;;;;;;;6.15;76.38;102575.69;4974008;28;99655;-30
2023/03/04 19:49:03;;;;;;;1.45;0.60;;;;;;;6.08;75.92;102576.72;4974530;28;96681;-30
2023/03/04 19:51:31;;;;;;;0.55;0.25;;;;;;;6.08;75.53;102568.63;4973642;28;97106;-31
2023/03/04 19:53:57;;;;;;;0.45;0.30;;;;;;;6.06;75.22;102559.69;4974046;28;99905;-30
2023/03/04 19:56:22;;;;;;;0.75;0.40;;;;;;;6.01;74.75;102572.34;4974302;28;97332;-30
2023/03/04 19:58:48;;;;;;;0.43;0.20;;;;;;;6.00;74.75;102572.34;4974076;28;96695;-31
2023/03/04 20:01:29;;;;;;;0.10;0.10;;;;;;;5.94;74.86;102579.59;4973004;28;96904;-30
2023/03/04 20:03:58;;;;;;;1.55;0.82;;;;;;;5.92;75.08;102581.38;4972680;28;101304;-29
2023/03/04 20:06:25;;;;;;;0.93;0.52;;;;;;;5.85;74.50;102574.31;4972724;28;100887;-31
2023/03/04 20:08:52;;;;;;;0.52;0.28;;;;;;;5.80;74.08;102578.88;4973549;28;97727;-30
2023/03/04 20:11:17;;;;;;;1.65;0.63;;;;;;;5.75;74.69;102580.72;4975848;28;96848;-30
2023/03/04 20:13:43;;;;;;;0.25;0.22;;;;;;;5.73;74.50;102577.16;4977570;28;96819;-30
2023/03/04 20:16:10;;;;;;;1.85;0.52;;;;;;;5.70;74.48;102585.28;4977323;28;99111;-30
2023/03/04 20:18:36;;;;;;;0.63;0.30;;;;;;;5.68;75.32;102585.28;4975998;28;98417;-30
2023/03/04 20:21:01;;;;;;;4.47;0.45;;;;;;;5.65;75.75;102588.03;4976257;28;96878;-31
2023/03/04 20:23:27;;;;;;;2.90;0.30;;;;;;;5.68;75.88;102589.78;4976795;28;98253;-29
2023/03/04 20:25:54;;;;;;;2.17;0.90;;;;;;;5.70;76.47;102590.66;4977076;28;97847;-31
2023/03/04 20:28:23;;;;;;;7.47;0.40;;;;;;;5.68;76.31;102582.59;4977542;28;96743;-30
2023/03/04 20:30:49;;;;;;;1.27;0.45;;;;;;;5.60;76.29;102579.16;4959916;28;96788;-31
2023/03/04 20:33:15;;;;;;;0.30;0.30;;;;;;;5.61;76.21;102575.53;4975542;28;101151;-29
2023/03/04 20:35:40;;;;;;;0.80;0.52;;;;;;;5.60;76.20;102576.47;4976933;28;99179;-30
2023/03/04 20:38:06;;;;;;;1.42;0.25;;;;;;;5.59;76.35;102579.16;4977477;28;96630;-31
2023/03/04 20:40:34;;;;;;;0.68;0.38;;;;;;;5.57;76.12;102575.59;4976171;28;97096;-30
2023/03/04 20:43:01;;;;;;;3.47;0.15;;;;;;;5.50;76.07;102567.59;4976682;28;98908;-30
2023/03/04 20:45:27;;;;;;;0.88;0.32;;;;;;;5.48;76.32;102561.38;4975154;28;100976;-30
2023/03/04 20:47:52;;;;;;;0.15;0.15;;;;;;;5.49;76.31;102565.81;4975458;28;96568;-30
2023/03/04 20:50:17;;;;;;;1.35;0.30;;;;;;;5.49;76.38;102559.56;4976913;28;96774;-30
2023/03/04 20:52:44;;;;;;;4.03;0.75;;;;;;;5.53;76.03;102572.06;4976795;28;97399;-32
2023/03/04 20:55:10;;;;;;;0.65;0.20;;;;;;;5.50;75.99;102567.59;4976584;28;99678;-33
2023/03/04 20:57:36;;;;;;;2.38;0.90;;;;;;;5.49;75.84;102564.94;4975504;28;96594;-30
2023/03/04 21:00:03;;;;;;;0.25;0.13;;;;;;;5.45;75.97;102561.38;4977006;28;96888;-30
2023/03/04 21:02:29;;;;;;;2.63;0.63;;;;;;;5.44;76.48;102559.63;4975012;28;102099;-30
2023/03/04 21:04:54;;;;;;;1.45;0.95;;;;;;;5.45;76.30;102563.19;4976812;28;99625;-30
2023/03/04 21:07:20;;;;;;;1.15;0.28;;;;;;;5.41;76.55;102559.69;4976803;28;96565;-30
2023/03/04 21:09:45;;;;;;;0.40;0.40;;;;;;;5.41;76.66;102556.06;4976591;28;96818;-29
2023/03/04 21:12:10;;;;;;;0.50;0.40;;;;;;;5.35;76.11;102550.78;4975749;28;99546;-30
2023/03/04 21:14:36;;;;;;;0.90;0.38;;;;;;;5.36;76.51;102564.19;4976106;28;99656;-30
2023/03/04 21:17:03;;;;;;;1.55;0.45;;;;;;;5.27;76.30;102561.63;4976844;28;96474;-30
2023/03/04 21:19:35;;;;;;;0.75;0.35;;;;;;;5.29;75.99;102557.09;4975042;28;96997;-30
2023/03/04 21:22:02;;;;;;;2.17;0.68;;;;;;;5.28;76.51;102561.59;4974663;28;101373;-29
2023/03/04 21:24:30;;;;;;;0.13;0.10;;;;;;;5.27;76.50;102559.84;4975756;28;99756;-30
2023/03/04 21:26:56;;;;;;;2.08;0.35;;;;;;;5.26;76.04;102559.84;4975027;28;96770;-30
2023/03/04 21:29:23;;;;;;;1.70;0.35;;;;;;;5.26;76.44;102552.66;4975332;28;96861;-30
2023/03/04 21:31:52;;;;;;;0.70;0.32;;;;;;;5.29;76.55;102549.03;4975891;28;99042;-30
2023/03/04 21:34:30;;;;;;;0.60;0.40;;;;;;;5.32;76.41;102549.03;4975892;28;98946;-30
2023/03/04 21:36:56;;;;;;;0.95;0.40;;;;;;;5.33;76.49;102542.75;4974642;28;96717;-30
2023/03/04 21:39:23;;;;;;;2.22;0.52;;;;;;;5.32;76.68;102541.84;4976242;28;96752;-30
2023/03/04 21:41:49;;;;;;;0.32;0.22;;;;;;;5.36;76.84;102540.00;4975860;28;97362;-30
2023/03/04 21:44:14;;;;;;;0.80;0.20;;;;;;;5.39;76.84;102547.16;4974366;28;102216;-31
2023/03/04 21:46:40;;;;;;;0.52;0.20;;;;;;;5.35;76.62;102538.25;4974770;28;96604;-30
2023/03/04 21:49:07;;;;;;;1.95;0.50;;;;;;;5.39;76.79;102548.06;4976226;28;96811;-29
2023/03/04 21:51:33;;;;;;;1.42;0.47;;;;;;;5.40;76.99;102543.56;4975451;28;99237;-30
2023/03/04 21:53:59;;;;;;;0.85;0.20;;;;;;;5.37;76.53;102540.91;4974583;28;100966;-30
2023/03/04 21:56:25;;;;;;;3.20;0.68;;;;;;;5.39;76.47;102540.00;4975811;28;96611;-30
2023/03/04 21:58:50;;;;;;;3.78;1.00;;;;;;;5.37;76.96;102544.50;4975988;28;96782;-30
2023/03/04 22:01:19;;;;;;;3.53;0.60;;;;;;;5.34;76.74;102539.16;4975110;28;99944;-30
2023/03/04 22:03:48;;;;;;;0.40;0.40;;;;;;;5.31;76.94;102531.13;4974129;28;101659;-30
2023/03/04 22:06:14;;;;;;;3.30;0.50;;;;;;;5.33;76.85;102523.94;4974452;28;96788;-29
2023/03/04 22:08:41;;;;;;;7.18;1.00;;;;;;;5.32;76.85;102523.06;4975137;28;96803;-29
2023/03/04 22:11:09;;;;;;;3.20;0.70;;;;;;;5.28;76.63;102520.41;4975387;28;97905;-30
2023/03/04 22:13:34;;;;;;;0.43;0.35;;;;;;;5.27;77.08;102529.41;4974117;28;100980;-30
2023/03/04 22:16:00;;;;;;;1.17;0.80;;;;;;;5.23;77.05;102520.47;4975514;28;96596;-30
2023/03/04 22:18:26;;;;;;;0.25;0.20;;;;;;;5.23;76.70;102528.53;4974587;28;96802;-29
2023/03/04 22:21:03;;;;;;;3.88;1.10;;;;;;;5.24;76.94;102524.97;4973942;28;101194;-31
2023/03/04 22:23:29;;;;;;;1.25;0.75;;;;;;;5.26;76.97;102522.22;4973995;28;101896;-29
2023/03/04 22:25:54;;;;;;;0.90;0.60;;;;;;;5.25;76.53;102512.41;4974863;28;96605;-31
2023/03/04 22:28:20;;;;;;;1.38;0.85;;;;;;;5.23;76.40;102516.91;4975693;28;96754;-30
2023/03/04 22:30:46;;;;;;;0.90;0.47;;;;;;;5.22;76.33;102507.97;4973769;28;99383;-30
2023/03/04 22:33:11;;;;;;;2.97;1.10;;;;;;;5.25;77.01;102513.28;4974769;28;97678;-30
2023/03/04 22:35:40;;;;;;;1.38;0.88;;;;;;;5.24;76.84;102505.25;4975538;28;96660;-31
2023/03/04 22:38:06;;;;;;;1.05;0.80;;;;;;;5.23;76.69;102507.03;4975593;28;96705;-29
2023/03/04 22:40:32;;;;;;;0.60;0.60;;;;;;;5.23;76.78;102511.53;4973692;28;100433;-30
2023/03/04 22:42:58;;;;;;;5.25;1.80;;;;;;;5.18;76.88;102506.22;4973992;28;101063;-30
2023/03/04 22:45:26;;;;;;;0.88;0.77;;;;;;;5.13;76.70;102508.06;4975244;28;96558;-30
2023/03/04 22:47:52;;;;;;;2.13;0.73;;;;;;;5.11;76.40;102510.75;4973954;28;96742;-30
2023/03/04 22:50:20;;;;;;;0.73;0.30;;;;;;;5.14;76.79;102512.53;4974334;28;97954;-30
2023/03/04 22:52:46;;;;;;;2.10;1.38;;;;;;;5.15;76.94;102508.03;4974968;28;98398;-30
2023/03/04 22:55:14;;;;;;;1.88;0.55;;;;;;;5.16;77.24;102508.03;4975095;28;96699;-29
2023/03/04 22:57:40;;;;;;;0.60;0.47;;;;;;;5.14;76.97;102509.84;4973823;28;96759;-30
2023/03/04 23:00:21;;;;;;;1.58;0.55;;;;;;;5.16;76.96;102508.03;4973378;28;100803;-30
2023/03/04 23:02:47;;;;;;;0.75;0.30;;;;;;;5.14;77.37;102499.09;4974958;28;97388;-30
2023/03/04 23:05:13;;;;;;;1.27;0.60;;;;;;;5.12;77.14;102498.22;4975176;28;96615;-30
2023/03/04 23:07:39;;;;;;;0.70;0.45;;;;;;;5.09;77.61;102487.53;4974052;28;96786;-30
2023/03/04 23:10:08;;;;;;;1.52;0.75;;;;;;;5.05;77.37;102486.69;4973158;28;101270;-30
2023/03/04 23:12:34;;;;;;;2.35;0.43;;;;;;;5.02;77.80;102491.19;4973382;28;101329;-30
2023/03/04 23:15:00;;;;;;;1.85;0.63;;;;;;;4.97;77.77;102483.19;4974707;28;96441;-30
2023/03/04 23:17:25;;;;;;;0.43;0.32;;;;;;;4.96;77.76;102478.75;4974767;28;96833;-30
2023/03/04 23:19:51;;;;;;;2.33;0.25;;;;;;;4.95;78.05;102478.75;4973276;28;100995;-30
2023/03/04 23:22:17;;;;;;;0.28;0.28;;;;;;;4.88;77.85;102470.75;4974651;28;97332;-30
2023/03/04 23:24:42;;;;;;;4.32;0.30;;;;;;;4.86;78.04;102471.69;4974781;28;96850;-31
2023/03/04 23:27:08;;;;;;;0.57;0.57;;;;;;;4.83;78.22;102480.66;4974871;28;96858;-31
2023/03/04 23:29:33;;;;;;;7.03;1.10;;;;;;;4.81;77.91;102470.84;4973312;28;97955;-30
2023/03/04 23:31:58;;;;;;;2.63;1.33;;;;;;;4.79;78.35;102481.63;4974362;28;99151;-29
2023/03/04 23:34:24;;;;;;;4.68;0.70;;;;;;;4.74;77.94;102458.41;4974567;28;96643;-30
2023/03/04 23:36:49;;;;;;;3.35;1.23;;;;;;;4.75;78.13;102462.88;4975025;28;96498;-30
2023/03/04 23:39:15;;;;;;;1.80;0.88;;;;;;;4.73;77.84;102459.31;4973921;28;99369;-30
2023/03/04 23:41:40;;;;;;;1.77;1.10;;;;;;;4.66;78.11;102453.13;4974399;28;97885;-30
2023/03/04 23:44:07;;;;;;;1.13;0.40;;;;;;;4.64;78.35;102446.88;4973304;28;96642;-31
2023/03/04 23:46:33;;;;;;;3.28;0.80;;;;;;;4.60;78.07;102456.78;4976428;28;96805;-29
2023/03/04 23:48:58;;;;;;;1.02;0.52;;;;;;;4.56;78.50;102465.75;4977857;28;97877;-30
2023/03/04 23:51:26;;;;;;;1.30;0.88;;;;;;;4.53;78.63;102457.75;4977373;28;99057;-29
2023/03/04 23:53:52;;;;;;;0.75;0.65;;;;;;;4.41;78.13;102450.72;4976598;28;96800;-29
2023/03/04 23:56:21;;;;;;;0.88;0.50;;;;;;;4.38;78.60;102460.56;4978442;28;96787;-29
2023/03/04 23:58:47;;;;;;;0.63;0.43;;;;;;;4.29;78.86;102452.59;4976125;28;98856;-29
